Time;durP1;ratioP1;P1;durP2;ratioP2;P2;SDS_P1;SDS_P2;PMS_P1;PMS_P2;Temp;Humidity;BMP_temperature;BMP_pressure;BME280_temperature;BME280_humidity;BME280_pressure;Samples;Min_cycle;Max_cycle;Signal;HPM_P1;HPM_P2
2021/12/02 00:00:41;;;;;;;111.53;41.03;;;;;;;3.34;66.31;99362.66;3095917;28;20506;-72
2021/12/02 00:02:13;;;;;;;128.98;45.55;;;;;;;3.31;66.49;99366.19;3092807;28;20185;-71
2021/12/02 00:03:47;;;;;;;127.47;43.83;;;;;;;3.32;66.65;99360.16;3092102;28;20173;-72
2021/12/02 00:05:19;;;;;;;116.18;39.65;;;;;;;3.24;66.68;99351.75;3095468;28;20460;-72
2021/12/02 00:06:51;;;;;;;92.22;31.55;;;;;;;3.29;66.78;99365.38;3091327;28;20129;-71
2021/12/02 00:08:23;;;;;;;102.38;33.80;;;;;;;3.26;66.63;99364.59;3095355;28;20141;-72
2021/12/02 00:09:55;;;;;;;100.25;32.13;;;;;;;3.26;66.86;99370.59;3093447;28;20154;-71
2021/12/02 00:11:27;;;;;;;97.97;32.25;;;;;;;3.24;66.90;99369.75;3089815;28;20050;-71
2021/12/02 00:13:01;;;;;;;86.45;29.70;;;;;;;3.23;66.84;99370.66;3095066;28;20130;-71
2021/12/02 00:14:40;;;;;;;83.88;29.13;;;;;;;3.21;66.99;99372.41;3093356;28;20136;-71
2021/12/02 00:16:20;;;;;;;87.22;29.60;;;;;;;3.11;66.90;99365.78;3094417;28;20512;-72
2021/12/02 00:17:57;;;;;;;84.63;29.60;;;;;;;3.18;66.81;99378.47;3094830;28;20038;-71
2021/12/02 00:21:21;;;;;;;76.18;27.05;;;;;;;3.14;67.01;99383.72;3094743;28;20054;-71
2021/12/02 00:23:28;;;;;;;48.85;20.88;;;;;;;3.12;67.05;99382.91;3092519;28;20062;-71
2021/12/02 00:25:03;;;;;;;45.83;19.15;;;;;;;3.07;67.20;99382.13;3089798;28;20156;-71
2021/12/02 00:26:37;;;;;;;44.25;19.52;;;;;;;3.05;67.14;99387.34;3094299;28;20105;-71
2021/12/02 00:28:11;;;;;;;53.20;18.95;;;;;;;3.04;67.22;99385.63;3095981;28;20389;-71
2021/12/02 00:29:46;;;;;;;49.13;18.98;;;;;;;3.03;67.25;99393.38;3094241;28;20433;-71
2021/12/02 00:31:20;;;;;;;51.30;20.10;;;;;;;3.00;67.35;99393.44;3093658;28;20058;-71
2021/12/02 00:32:55;;;;;;;52.45;21.23;;;;;;;2.97;67.28;99395.19;3095320;28;20050;-71
2021/12/02 00:34:28;;;;;;;57.35;21.95;;;;;;;2.95;67.32;99396.94;3094996;28;20191;-71
2021/12/02 00:36:01;;;;;;;50.80;21.07;;;;;;;2.94;67.52;99391.84;3094122;28;20807;-72
2021/12/02 00:37:33;;;;;;;49.65;19.60;;;;;;;2.92;67.50;99391.03;3094931;28;20342;-71
2021/12/02 00:39:10;;;;;;;55.83;19.65;;;;;;;2.89;67.59;99386.78;3092848;28;20512;-71
2021/12/02 00:40:43;;;;;;;48.20;19.25;;;;;;;2.88;67.53;99387.69;3096181;28;20057;-72
2021/12/02 00:42:15;;;;;;;45.83;18.25;;;;;;;2.85;67.57;99385.16;3093403;28;20050;-71
2021/12/02 00:43:50;;;;;;;44.95;18.80;;;;;;;2.86;67.67;99386.84;3093265;28;20547;-71
2021/12/02 00:45:23;;;;;;;46.70;19.42;;;;;;;2.86;67.67;99386.00;3088494;28;20153;-71
2021/12/02 00:46:55;;;;;;;48.00;20.02;;;;;;;2.83;67.85;99384.34;3093558;28;20581;-71
2021/12/02 00:48:27;;;;;;;50.25;20.75;;;;;;;2.78;67.76;99382.75;3095235;28;20054;-71
2021/12/02 00:49:59;;;;;;;45.83;19.90;;;;;;;2.82;67.79;99392.94;3094658;28;20129;-71
2021/12/02 00:51:32;;;;;;;48.47;19.98;;;;;;;2.80;67.83;99383.56;3092934;28;20046;-72
2021/12/02 00:53:06;;;;;;;50.40;19.80;;;;;;;2.78;67.86;99375.91;3095244;28;20061;-71
2021/12/02 00:54:41;;;;;;;47.88;19.02;;;;;;;2.70;68.05;99372.63;3094792;28;20129;-70
2021/12/02 00:56:16;;;;;;;48.08;19.10;;;;;;;2.71;67.88;99364.88;3091891;28;20113;-70
2021/12/02 00:57:48;;;;;;;46.42;18.58;;;;;;;2.76;68.00;99379.38;3094737;28;20157;-70
2021/12/02 00:59:23;;;;;;;39.63;17.20;;;;;;;2.76;68.05;99382.78;3089457;28;20145;-71
2021/12/02 01:00:56;;;;;;;42.25;18.58;;;;;;;2.73;67.92;99373.41;3089307;28;20082;-70
2021/12/02 01:02:29;;;;;;;45.92;18.08;;;;;;;2.71;68.04;99369.16;3093252;28;20108;-71
2021/12/02 01:04:01;;;;;;;41.60;17.52;;;;;;;2.71;67.90;99367.44;3094941;28;20046;-70
2021/12/02 01:05:34;;;;;;;43.60;16.87;;;;;;;2.72;67.91;99373.41;3094225;28;20066;-70
2021/12/02 01:07:06;;;;;;;41.83;16.05;;;;;;;2.68;68.01;99372.66;3093014;28;20487;-71
2021/12/02 01:08:39;;;;;;;40.15;16.77;;;;;;;2.69;67.95;99366.66;3091786;28;20074;-71
2021/12/02 01:10:11;;;;;;;38.10;15.82;;;;;;;2.67;68.10;99368.38;3094428;28;20173;-71
2021/12/02 01:11:44;;;;;;;40.55;16.77;;;;;;;2.68;67.97;99369.22;3088434;28;20047;-70
2021/12/02 01:13:17;;;;;;;41.38;16.65;;;;;;;2.67;67.95;99370.97;3094074;28;20129;-70
2021/12/02 01:14:50;;;;;;;39.97;16.92;;;;;;;2.66;67.95;99365.84;3094158;28;20502;-72
2021/12/02 01:16:22;;;;;;;;;;;;;;;2.60;67.81;99364.22;3089860;28;20141;-71
2021/12/02 01:17:54;;;;;;;43.58;17.42;;;;;;;2.59;68.11;99361.72;3094705;28;20016;-73
2021/12/02 01:19:26;;;;;;;37.22;15.52;;;;;;;2.59;67.91;99367.69;3091280;28;20054;-72
2021/12/02 01:20:59;;;;;;;44.97;16.90;;;;;;;2.59;67.99;99359.97;3094740;28;20546;-72
2021/12/02 01:22:35;;;;;;;36.88;16.27;;;;;;;2.58;68.05;99365.16;3094400;28;20220;-72
2021/12/02 01:24:10;;;;;;;42.53;17.10;;;;;;;2.56;68.14;99359.19;3094084;28;20129;-72
2021/12/02 01:25:48;;;;;;;49.72;18.30;;;;;;;2.55;68.21;99362.66;3094429;28;20083;-73
2021/12/02 01:27:21;;;;;;;39.55;17.23;;;;;;;2.50;68.13;99349.88;3092486;28;20141;-73
2021/12/02 01:28:53;;;;;;;41.60;16.75;;;;;;;2.53;68.10;99357.53;3094659;28;20432;-73
2021/12/02 01:30:28;;;;;;;41.40;16.80;;;;;;;2.54;68.32;99360.94;3094225;28;20089;-73
2021/12/02 01:32:04;;;;;;;42.03;17.08;;;;;;;2.52;68.32;99352.44;3094435;28;20081;-73
2021/12/02 01:33:36;;;;;;;39.28;16.58;;;;;;;2.50;68.50;99348.16;3094282;28;20059;-73
2021/12/02 01:35:09;;;;;;;41.80;17.17;;;;;;;2.49;68.30;99343.91;3093184;28;20297;-73
2021/12/02 01:36:41;;;;;;;45.00;16.65;;;;;;;2.47;68.47;99342.22;3093310;28;20106;-73
2021/12/02 01:38:13;;;;;;;48.55;18.10;;;;;;;2.50;68.38;99348.16;3094420;28;20149;-73
2021/12/02 01:39:46;;;;;;;34.95;14.57;;;;;;;2.46;68.58;99351.66;3091966;28;20166;-72
2021/12/02 01:41:18;;;;;;;38.88;15.07;;;;;;;2.48;68.53;99352.50;3094940;28;20562;-72
2021/12/02 01:42:54;;;;;;;37.30;14.95;;;;;;;2.47;68.47;99350.78;3093268;28;20074;-72
2021/12/02 01:44:27;;;;;;;30.02;13.90;;;;;;;2.46;68.43;99348.25;3091900;28;20058;-72
2021/12/02 01:46:03;;;;;;;33.20;13.23;;;;;;;2.45;68.69;99344.81;3088317;28;20519;-72
2021/12/02 01:47:45;;;;;;;35.53;14.27;;;;;;;2.45;68.67;99349.13;3091774;28;20046;-73
2021/12/02 01:49:19;;;;;;;30.67;13.77;;;;;;;2.43;68.57;99348.31;3089223;28;20140;-72
2021/12/02 01:51:01;;;;;;;29.08;12.18;;;;;;;2.43;68.68;99356.88;3092440;28;20046;-72
2021/12/02 01:52:33;;;;;;;32.63;12.80;;;;;;;2.41;68.58;99360.34;3092862;28;20316;-72
2021/12/02 01:54:07;;;;;;;31.73;13.02;;;;;;;2.39;68.70;99360.34;3094109;28;20089;-72
2021/12/02 01:55:43;;;;;;;29.85;11.80;;;;;;;2.39;68.64;99365.50;3090694;28;20054;-72
2021/12/02 01:57:29;;;;;;;26.27;11.63;;;;;;;2.38;68.76;99366.38;3093509;28;20199;-72
2021/12/02 01:59:10;;;;;;;29.70;12.65;;;;;;;2.37;68.73;99366.44;3093751;28;20096;-72
2021/12/02 02:00:45;;;;;;;29.35;11.93;;;;;;;2.28;68.83;99354.59;3089610;28;20503;-72
2021/12/02 02:02:21;;;;;;;27.05;11.18;;;;;;;2.32;68.85;99358.78;3094091;28;20042;-71
2021/12/02 02:03:55;;;;;;;27.65;11.18;;;;;;;2.31;68.86;99357.09;3090063;28;21203;-71
2021/12/02 02:05:27;;;;;;;29.65;11.48;;;;;;;2.30;68.96;99360.53;3093659;28;20487;-72
2021/12/02 02:07:01;;;;;;;24.48;9.90;;;;;;;2.30;68.90;99357.97;3093120;28;20054;-71
2021/12/02 02:08:34;;;;;;;19.23;9.18;;;;;;;2.26;69.01;99362.31;3092176;28;20141;-72
2021/12/02 02:10:07;;;;;;;25.42;10.40;;;;;;;2.25;69.01;99363.19;3094360;28;20566;-73
2021/12/02 02:11:39;;;;;;;21.60;9.98;;;;;;;2.23;68.91;99361.53;3092368;28;20848;-72
2021/12/02 02:13:12;;;;;;;22.05;10.43;;;;;;;2.19;69.12;99354.72;3089707;28;20484;-72
2021/12/02 02:14:45;;;;;;;22.25;9.68;;;;;;;2.22;68.89;99362.41;3093578;28;20073;-72
2021/12/02 02:16:17;;;;;;;21.92;9.55;;;;;;;2.20;68.93;99364.16;3094543;28;20082;-73
2021/12/02 02:17:55;;;;;;;22.15;9.60;;;;;;;2.20;68.89;99353.88;3094078;28;20078;-72
2021/12/02 02:19:30;;;;;;;17.05;8.68;;;;;;;2.17;68.99;99353.94;3093102;28;20062;-72
2021/12/02 02:21:08;;;;;;;26.27;9.10;;;;;;;2.16;69.13;99354.78;3094613;28;20058;-72
2021/12/02 02:22:40;;;;;;;19.38;8.82;;;;;;;2.04;69.08;99340.44;3094121;28;20115;-73
2021/12/02 02:24:15;;;;;;;21.45;8.90;;;;;;;2.13;69.33;99367.69;3092423;28;20502;-72
2021/12/02 02:25:47;;;;;;;24.15;9.48;;;;;;;2.06;69.40;99354.13;3095573;28;20140;-72
2021/12/02 02:27:20;;;;;;;22.02;9.30;;;;;;;2.05;69.26;99357.56;3095817;28;20492;-72
2021/12/02 02:28:52;;;;;;;19.80;8.52;;;;;;;2.10;69.19;99358.34;3095506;28;20653;-72
2021/12/02 02:30:24;;;;;;;23.27;8.90;;;;;;;2.09;69.24;99364.34;3096479;28;20055;-73
2021/12/02 02:31:56;;;;;;;21.83;8.98;;;;;;;2.09;69.29;99366.06;3095284;28;20050;-72
2021/12/02 02:33:35;;;;;;;18.95;8.40;;;;;;;2.08;69.22;99364.38;3097209;28;20073;-71
2021/12/02 02:35:08;;;;;;;19.10;8.57;;;;;;;2.08;69.26;99370.38;3095525;28;20129;-72
2021/12/02 02:36:51;;;;;;;20.50;8.93;;;;;;;2.04;69.19;99363.56;3094371;28;20145;-71
2021/12/02 02:38:23;;;;;;;18.48;8.43;;;;;;;2.05;69.26;99360.13;3096841;28;20058;-72
2021/12/02 02:39:55;;;;;;;23.48;9.38;;;;;;;2.04;69.32;99350.72;3094517;28;20085;-72
2021/12/02 02:41:28;;;;;;;19.63;9.10;;;;;;;2.03;69.34;99354.19;3096026;28;20133;-72
2021/12/02 02:43:06;;;;;;;22.60;8.63;;;;;;;2.03;69.32;99344.75;3095340;28;20628;-71
2021/12/02 02:44:38;;;;;;;17.90;8.52;;;;;;;2.03;69.49;99346.47;3092612;28;20587;-72
2021/12/02 02:46:19;;;;;;;18.38;8.23;;;;;;;2.01;69.42;99341.38;3096476;28;20912;-70
2021/12/02 02:47:52;;;;;;;18.83;7.95;;;;;;;2.01;69.51;99343.94;3093264;28;20105;-71
2021/12/02 02:49:24;;;;;;;20.10;8.13;;;;;;;2.00;69.63;99347.38;3083979;28;20062;-72
2021/12/02 02:50:57;;;;;;;18.27;8.35;;;;;;;1.98;69.81;99344.00;3085696;28;20070;-71
2021/12/02 02:52:33;;;;;;;16.38;7.50;;;;;;;1.98;69.72;99354.28;3085446;28;20120;-71
2021/12/02 02:54:08;;;;;;;16.63;7.47;;;;;;;2.00;69.93;99362.78;3087159;28;20089;-71
2021/12/02 02:55:42;;;;;;;16.05;7.45;;;;;;;2.01;69.89;99361.94;3087365;28;20061;-71
2021/12/02 02:57:16;;;;;;;19.35;8.23;;;;;;;2.00;69.76;99362.78;3088270;28;20069;-71
2021/12/02 02:58:58;;;;;;;18.65;7.78;;;;;;;2.01;69.89;99369.63;3081365;28;20120;-70
2021/12/02 03:00:33;;;;;;;17.52;7.50;;;;;;;2.01;69.89;99363.63;3082603;28;20546;-70
2021/12/02 03:02:15;;;;;;;15.70;7.10;;;;;;;2.02;69.86;99366.19;3080988;28;20108;-70
2021/12/02 03:03:55;;;;;;;18.58;7.50;;;;;;;1.99;69.72;99366.22;3085385;28;20113;-71
2021/12/02 03:05:34;;;;;;;16.88;7.20;;;;;;;1.98;69.73;99368.81;3081611;28;20089;-70
2021/12/02 03:07:10;;;;;;;15.70;7.60;;;;;;;2.01;69.86;99369.63;3082912;28;20241;-70
2021/12/02 03:08:50;;;;;;;15.50;7.22;;;;;;;2.02;69.98;99373.03;3081157;28;20043;-70
2021/12/02 03:10:30;;;;;;;16.85;7.50;;;;;;;1.98;69.95;99371.38;3081759;28;20619;-70
2021/12/02 03:12:08;;;;;;;16.63;7.25;;;;;;;2.01;70.04;99390.16;3083519;28;20772;-70
2021/12/02 03:13:47;;;;;;;21.27;8.02;;;;;;;1.99;70.12;99386.78;3084439;28;20104;-70
2021/12/02 03:17:11;;;;;;;16.92;7.20;;;;;;;1.96;70.33;99386.81;3086471;28;20535;-70
2021/12/02 03:18:42;;;;;;;22.77;7.80;;;;;;;1.98;70.38;99387.66;3086610;28;20522;-70
2021/12/02 03:20:15;;;;;;;19.73;8.63;;;;;;;1.96;70.52;99391.97;3085555;28;20050;-71
2021/12/02 03:21:47;;;;;;;20.07;8.30;;;;;;;1.96;70.59;99391.97;3087502;28;20056;-74
2021/12/02 03:23:19;;;;;;;19.20;8.45;;;;;;;1.95;70.51;99392.84;3086578;28;20573;-75
2021/12/02 03:24:53;;;;;;;21.48;8.50;;;;;;;1.95;70.46;99392.84;3085180;28;20062;-74
2021/12/02 03:26:26;;;;;;;19.85;7.60;;;;;;;1.91;70.48;99380.06;3086407;28;20054;-73
2021/12/02 03:27:58;;;;;;;17.10;8.27;;;;;;;1.94;70.26;99393.69;3087053;28;20105;-73
2021/12/02 03:29:30;;;;;;;16.27;8.15;;;;;;;1.94;70.42;99395.44;3084852;28;20227;-72
2021/12/02 03:31:03;;;;;;;18.52;8.30;;;;;;;1.92;70.30;99389.47;3086153;28;20615;-72
2021/12/02 03:32:37;;;;;;;18.13;8.10;;;;;;;1.92;70.50;99385.16;3083974;28;20047;-72
2021/12/02 03:34:09;;;;;;;21.83;8.45;;;;;;;1.81;70.63;99369.97;3087701;28;20665;-71
2021/12/02 03:35:41;;;;;;;19.23;8.27;;;;;;;1.88;70.31;99378.41;3085837;28;20054;-70
2021/12/02 03:37:14;;;;;;;18.90;9.05;;;;;;;1.88;70.33;99386.09;3082798;28;20418;-71
2021/12/02 03:38:46;;;;;;;18.83;7.80;;;;;;;1.87;70.27;99379.28;3087470;28;20050;-70
2021/12/02 03:40:20;;;;;;;20.88;7.78;;;;;;;1.85;70.12;99381.00;3084458;28;20662;-70
2021/12/02 03:41:52;;;;;;;21.45;8.68;;;;;;;1.81;70.19;99377.66;3084342;28;20065;-70
2021/12/02 03:43:24;;;;;;;17.23;7.97;;;;;;;1.80;70.05;99378.53;3085765;28;20770;-71
2021/12/02 03:44:56;;;;;;;19.98;8.45;;;;;;;1.80;70.27;99386.25;3084847;28;20050;-71
2021/12/02 03:46:30;;;;;;;20.52;9.07;;;;;;;1.78;70.29;99390.53;3086882;28;20562;-73
2021/12/02 03:48:01;;;;;;;;;;;;;;;1.73;70.09;99386.34;3084709;28;20051;-72
2021/12/02 03:49:33;;;;;;;19.33;8.40;;;;;;;1.71;70.22;99385.53;3085675;28;19926;-72
2021/12/02 03:51:06;;;;;;;23.25;8.68;;;;;;;1.71;70.39;99375.25;3085183;28;20060;-72
2021/12/02 03:52:38;;;;;;;20.40;8.65;;;;;;;1.70;70.28;99378.69;3082667;28;20058;-72
2021/12/02 03:54:10;;;;;;;29.42;8.85;;;;;;;1.70;70.39;99378.69;3086991;28;20403;-72
2021/12/02 03:55:43;;;;;;;22.08;9.45;;;;;;;1.68;70.43;99372.75;3085833;28;20050;-71
2021/12/02 03:57:15;;;;;;;;;;;;;;;1.63;70.12;99370.25;3084209;28;20058;-71
2021/12/02 03:58:51;;;;;;;23.90;8.93;;;;;;;1.63;70.28;99371.94;3086519;28;20204;-72
2021/12/02 04:00:23;;;;;;;20.88;9.95;;;;;;;1.61;70.45;99369.44;3080629;28;20508;-71
2021/12/02 04:01:55;;;;;;;17.75;8.77;;;;;;;1.59;70.49;99368.59;3086010;28;20065;-70
2021/12/02 04:03:27;;;;;;;23.95;9.30;;;;;;;1.58;70.39;99372.88;3085002;28;20042;-71
2021/12/02 04:04:59;;;;;;;24.73;9.48;;;;;;;1.57;70.48;99373.78;3080914;28;20124;-71
2021/12/02 04:06:31;;;;;;;23.08;9.57;;;;;;;1.56;70.51;99377.19;3085570;28;20094;-71
2021/12/02 04:08:03;;;;;;;23.17;10.13;;;;;;;1.56;70.59;99372.06;3083446;28;20141;-71
2021/12/02 04:09:40;;;;;;;22.55;9.20;;;;;;;1.57;70.55;99383.19;3082915;28;20058;-71
2021/12/02 04:11:22;;;;;;;20.58;9.27;;;;;;;1.55;70.62;99388.34;3085029;28;20322;-70
2021/12/02 04:13:03;;;;;;;22.00;9.23;;;;;;;1.54;70.55;99389.22;3085893;28;20050;-71
2021/12/02 04:14:37;;;;;;;23.67;9.75;;;;;;;1.51;70.76;99379.00;3087005;28;20121;-70
2021/12/02 04:16:15;;;;;;;20.90;9.68;;;;;;;1.51;70.83;99386.69;3086149;28;20050;-71
2021/12/02 04:17:48;;;;;;;24.67;10.43;;;;;;;1.52;70.85;99384.97;3082402;28;20077;-71
2021/12/02 04:19:22;;;;;;;20.20;9.20;;;;;;;1.50;70.67;99382.41;3085492;28;20184;-71
2021/12/02 04:20:53;;;;;;;22.60;10.38;;;;;;;1.51;70.86;99380.69;3086345;28;20226;-72
2021/12/02 04:22:25;;;;;;;31.00;9.98;;;;;;;1.49;70.96;99375.59;3086956;28;20181;-71
2021/12/02 04:23:57;;;;;;;22.05;10.32;;;;;;;1.48;70.97;99373.91;3084714;28;20070;-71
2021/12/02 04:25:29;;;;;;;28.20;9.68;;;;;;;1.38;71.17;99353.53;3086645;28;20442;-71
2021/12/02 04:27:03;;;;;;;21.42;10.05;;;;;;;1.47;71.09;99368.78;3086555;28;20694;-71
2021/12/02 04:28:34;;;;;;;24.90;12.50;;;;;;;1.45;70.95;99363.69;3084273;28;20624;-72
2021/12/02 04:30:09;;;;;;;31.10;13.20;;;;;;;1.44;70.99;99367.09;3080171;28;20065;-72
2021/12/02 04:31:43;;;;;;;33.67;13.10;;;;;;;1.44;70.98;99377.38;3084301;28;20050;-71
2021/12/02 04:33:15;;;;;;;27.35;10.77;;;;;;;1.40;71.06;99364.63;3082490;28;20061;-71
2021/12/02 04:34:47;;;;;;;31.92;11.20;;;;;;;1.42;71.11;99371.44;3085602;28;20570;-73
2021/12/02 04:36:18;;;;;;;23.60;10.93;;;;;;;1.44;71.26;99366.28;3085144;28;20050;-73
2021/12/02 04:37:52;;;;;;;27.45;11.07;;;;;;;1.41;71.19;99367.16;3087624;28;20443;-73
2021/12/02 04:39:24;;;;;;;;;;;;;;;1.36;70.87;99363.81;3086918;28;20148;-71
2021/12/02 04:40:56;;;;;;;26.40;9.77;;;;;;;1.34;70.96;99365.56;3082533;28;19976;-71
2021/12/02 04:43:09;;;;;;;27.67;11.10;;;;;;;1.32;70.89;99369.88;3093633;28;20467;-71
2021/12/02 04:44:42;;;;;;;25.77;10.65;;;;;;;1.28;71.14;99368.22;3087428;28;20054;-71
2021/12/02 04:46:14;;;;;;;;;;;;;;;1.24;70.90;99381.94;3095823;28;20102;-71
2021/12/02 04:47:46;;;;;;;24.02;10.57;;;;;;;1.19;71.13;99379.47;3092568;28;19965;-72
2021/12/02 04:49:18;;;;;;;39.28;11.40;;;;;;;1.20;71.38;99382.88;3092058;28;20124;-74
2021/12/02 04:50:50;;;;;;;23.85;10.90;;;;;;;1.20;71.14;99385.44;3095014;28;20046;-72
2021/12/02 04:52:22;;;;;;;27.60;10.65;;;;;;;1.19;71.23;99387.16;3092416;28;20054;-72
2021/12/02 04:53:54;;;;;;;24.95;12.13;;;;;;;1.19;71.21;99382.03;3092602;28;20050;-73
2021/12/02 04:55:26;;;;;;;26.00;10.75;;;;;;;1.19;71.30;99376.06;3094002;28;20521;-72
2021/12/02 04:56:58;;;;;;;32.47;12.35;;;;;;;1.18;71.29;99372.63;3089962;28;20524;-72
2021/12/02 04:58:30;;;;;;;30.90;11.50;;;;;;;1.17;71.15;99377.78;3095151;28;20047;-72
2021/12/02 05:00:05;;;;;;;24.20;10.77;;;;;;;1.16;71.29;99376.94;3094397;28;20112;-72
2021/12/02 05:01:37;;;;;;;25.23;11.70;;;;;;;1.15;71.35;99380.34;3089288;28;20108;-72
2021/12/02 05:03:08;;;;;;;26.50;11.13;;;;;;;1.15;71.39;99380.34;3093998;28;20687;-72
2021/12/02 05:04:40;;;;;;;30.52;11.48;;;;;;;1.12;71.40;99376.13;3093895;28;20129;-72
2021/12/02 05:06:12;;;;;;;22.20;11.07;;;;;;;1.12;71.40;99381.25;3095541;28;20100;-72
2021/12/02 05:07:44;;;;;;;33.63;12.90;;;;;;;1.11;71.69;99381.28;3094141;28;20046;-72
2021/12/02 05:09:16;;;;;;;43.53;17.38;;;;;;;1.10;71.72;99383.00;3094189;28;20084;-72
2021/12/02 05:10:49;;;;;;;43.00;16.77;;;;;;;1.10;71.65;99371.91;3094324;28;20101;-72
2021/12/02 05:12:21;;;;;;;38.75;15.10;;;;;;;1.07;71.71;99382.19;3093470;28;20137;-73
2021/12/02 05:13:53;;;;;;;34.08;15.63;;;;;;;1.09;71.75;99385.56;3095190;28;20100;-73
2021/12/02 05:15:26;;;;;;;38.78;16.05;;;;;;;1.06;71.77;99381.31;3094447;28;20046;-73
2021/12/02 05:16:58;;;;;;;;;;;;;;;1.01;71.66;99389.97;3092270;28;20089;-73
2021/12/02 05:18:30;;;;;;;36.90;15.10;;;;;;;1.00;71.78;99393.38;3094829;28;19922;-73
2021/12/02 05:20:02;;;;;;;38.95;15.90;;;;;;;0.97;71.84;99386.56;3094316;28;20057;-72
2021/12/02 05:21:34;;;;;;;40.05;15.48;;;;;;;0.95;72.04;99388.34;3092864;28;20113;-72
2021/12/02 05:23:06;;;;;;;35.00;15.05;;;;;;;0.91;72.25;99386.66;3094200;28;20089;-72
2021/12/02 05:24:38;;;;;;;38.22;16.58;;;;;;;0.86;72.39;99388.44;3090653;28;20046;-72
2021/12/02 05:26:10;;;;;;;47.67;18.15;;;;;;;0.85;72.47;99394.41;3095240;28;20058;-72
2021/12/02 05:27:41;;;;;;;36.45;17.30;;;;;;;0.82;72.25;99392.75;3093348;28;20058;-72
2021/12/02 05:29:13;;;;;;;40.17;16.27;;;;;;;0.83;72.49;99393.63;3091647;28;20058;-71
2021/12/02 05:30:47;;;;;;;48.70;18.15;;;;;;;0.81;72.75;99391.06;3094736;28;20062;-72
2021/12/02 05:32:19;;;;;;;47.30;17.25;;;;;;;0.77;72.67;99388.53;3093112;28;20140;-72
2021/12/02 05:33:52;;;;;;;39.38;16.13;;;;;;;0.78;72.67;99392.81;3093106;28;20050;-72
2021/12/02 05:35:23;;;;;;;45.60;15.43;;;;;;;0.77;72.69;99394.53;3094006;28;20105;-73
2021/12/02 05:36:55;;;;;;;47.38;18.08;;;;;;;0.78;72.64;99391.09;3090023;28;20059;-72
2021/12/02 05:38:27;;;;;;;47.33;19.13;;;;;;;0.78;72.72;99396.22;3095213;28;20054;-70
2021/12/02 05:39:59;;;;;;;47.97;20.92;;;;;;;0.79;72.75;99394.50;3093185;28;20058;-72
2021/12/02 05:41:32;;;;;;;42.08;18.20;;;;;;;0.78;72.65;99395.38;3089814;28;20116;-71
2021/12/02 05:43:04;;;;;;;35.45;15.48;;;;;;;0.77;72.53;99394.53;3093982;28;20053;-71
2021/12/02 05:44:36;;;;;;;39.28;15.05;;;;;;;0.78;72.52;99401.34;3093634;28;20050;-72
2021/12/02 05:46:11;;;;;;;38.58;15.00;;;;;;;0.78;72.49;99395.38;3094782;28;20100;-73
2021/12/02 05:47:43;;;;;;;36.60;14.80;;;;;;;0.77;72.65;99398.78;3091788;28;20510;-74
2021/12/02 05:49:15;;;;;;;41.50;14.88;;;;;;;0.73;72.59;99395.41;3092048;28;20053;-73
2021/12/02 05:50:47;;;;;;;31.38;14.02;;;;;;;0.73;72.70;99397.97;3094725;28;20125;-74
2021/12/02 05:52:19;;;;;;;30.98;13.98;;;;;;;0.78;72.67;99397.94;3093879;28;20061;-74
2021/12/02 05:53:51;;;;;;;35.72;13.73;;;;;;;0.79;72.66;99397.06;3088192;28;20051;-73
2021/12/02 05:55:23;;;;;;;31.85;13.98;;;;;;;0.79;72.47;99394.50;3094188;28;20046;-74
2021/12/02 05:56:54;;;;;;;37.97;15.23;;;;;;;0.80;72.46;99399.63;3094043;28;20069;-74
2021/12/02 05:58:26;;;;;;;41.75;16.45;;;;;;;0.80;72.60;99403.88;3094892;28;20050;-72
2021/12/02 05:59:58;;;;;;;35.67;15.82;;;;;;;0.82;72.56;99402.16;3092498;28;20117;-72
2021/12/02 06:01:31;;;;;;;41.42;18.45;;;;;;;0.84;72.62;99405.56;3094158;28;20051;-73
2021/12/02 06:03:03;;;;;;;45.20;17.60;;;;;;;0.86;72.53;99403.81;3094496;28;20054;-73
2021/12/02 06:04:37;;;;;;;45.72;18.05;;;;;;;0.88;72.64;99396.94;3093756;28;20080;-74
2021/12/02 06:06:09;;;;;;;38.67;17.10;;;;;;;0.94;72.55;99402.00;3093696;28;20054;-74
2021/12/02 06:07:41;;;;;;;37.10;16.67;;;;;;;0.99;72.45;99395.09;3094198;28;20058;-73
2021/12/02 06:09:15;;;;;;;37.95;16.77;;;;;;;1.05;72.51;99400.16;3092489;28;20054;-74
2021/12/02 06:10:47;;;;;;;42.55;18.55;;;;;;;1.11;72.55;99400.06;3094779;28;20056;-72
2021/12/02 06:12:19;;;;;;;48.95;20.67;;;;;;;1.21;72.59;99397.38;3091930;28;20059;-74
2021/12/02 06:13:51;;;;;;;46.80;19.42;;;;;;;1.28;72.64;99402.41;3092475;28;20051;-74
2021/12/02 06:15:23;;;;;;;37.45;16.27;;;;;;;1.28;72.58;99386.19;3093510;28;20054;-72
2021/12/02 06:16:57;;;;;;;45.95;23.20;;;;;;;1.38;72.78;99403.13;3092114;28;20181;-72
2021/12/02 06:18:28;;;;;;;43.88;18.35;;;;;;;1.44;72.83;99402.19;3094502;28;20108;-74
2021/12/02 06:20:00;;;;;;;45.30;17.90;;;;;;;1.49;72.92;99398.69;3093036;28;20050;-73
2021/12/02 06:21:32;;;;;;;43.78;20.05;;;;;;;1.55;72.94;99401.16;3091136;28;20416;-73
2021/12/02 06:23:04;;;;;;;52.10;20.00;;;;;;;1.66;72.85;99403.56;3094577;28;20120;-73
2021/12/02 06:24:43;;;;;;;38.60;16.55;;;;;;;1.76;72.67;99397.41;3092796;28;20054;-74
2021/12/02 06:26:15;;;;;;;42.70;19.33;;;;;;;1.91;72.64;99410.88;3091017;28;20058;-73
2021/12/02 06:27:50;;;;;;;60.00;21.75;;;;;;;2.02;72.59;99409.84;3093841;28;20043;-73
2021/12/02 06:29:22;;;;;;;49.20;20.95;;;;;;;2.05;72.10;99396.94;3089734;28;20055;-76
2021/12/02 06:30:54;;;;;;;58.25;21.75;;;;;;;2.21;72.09;99406.94;3094929;28;20046;-73
2021/12/02 06:32:27;;;;;;;48.47;19.67;;;;;;;2.26;71.92;99406.00;3092635;28;20042;-73
2021/12/02 06:33:59;;;;;;;;;;;;;;;2.32;71.87;99412.75;3091510;28;20077;-72
2021/12/02 06:35:31;;;;;;;52.75;18.95;;;;;;;2.38;71.72;99402.34;3093867;28;20004;-73
2021/12/02 06:37:03;;;;;;;54.17;21.65;;;;;;;2.46;71.66;99409.94;3092251;28;20105;-73
2021/12/02 06:38:36;;;;;;;50.40;21.53;;;;;;;2.53;71.60;99397.81;3093977;28;20049;-79
2021/12/02 06:40:09;;;;;;;53.30;19.30;;;;;;;2.57;71.42;99387.44;3089869;28;20920;-73
2021/12/02 06:41:41;;;;;;;39.05;17.55;;;;;;;2.72;71.32;99396.56;3087393;28;20054;-73
2021/12/02 06:43:15;;;;;;;36.67;18.77;;;;;;;2.78;71.20;99401.63;3089339;28;20080;-73
2021/12/02 06:44:47;;;;;;;43.28;19.92;;;;;;;2.83;71.10;99394.63;3088215;28;20058;-73
2021/12/02 06:46:20;;;;;;;48.47;20.70;;;;;;;2.93;71.03;99400.47;3088110;28;20050;-73
2021/12/02 06:47:58;;;;;;;51.15;20.83;;;;;;;3.00;70.72;99388.31;3089193;28;20097;-74
2021/12/02 06:49:32;;;;;;;39.25;17.85;;;;;;;3.15;70.71;99390.56;3083221;28;20550;-74
2021/12/02 06:51:04;;;;;;;36.63;17.85;;;;;;;3.28;70.42;99391.97;3082695;28;20515;-73
2021/12/02 06:52:37;;;;;;;37.35;17.98;;;;;;;3.41;70.14;99393.41;3083980;28;20046;-73
2021/12/02 06:54:09;;;;;;;48.03;18.33;;;;;;;3.51;69.94;99393.19;3082702;28;20125;-71
2021/12/02 06:55:41;;;;;;;40.42;18.77;;;;;;;3.61;69.75;99390.38;3083544;28;20054;-74
2021/12/02 06:57:15;;;;;;;46.55;17.73;;;;;;;3.76;69.60;99385.75;3084125;28;20058;-74
2021/12/02 06:58:47;;;;;;;45.83;18.55;;;;;;;3.94;69.27;99387.03;3083056;28;20059;-71
2021/12/02 07:00:21;;;;;;;47.15;18.45;;;;;;;4.09;68.79;99386.63;3083877;28;20137;-72
2021/12/02 07:01:53;;;;;;;40.88;17.65;;;;;;;4.23;68.41;99391.41;3082331;28;20550;-73
2021/12/02 07:03:27;;;;;;;59.10;18.13;;;;;;;4.36;68.11;99392.81;3081237;28;20063;-73
2021/12/02 07:04:59;;;;;;;59.92;18.40;;;;;;;4.44;67.61;99393.47;3087236;28;20155;-73
2021/12/02 07:06:31;;;;;;;50.08;16.90;;;;;;;4.49;67.32;99394.16;3081804;28;20051;-72
2021/12/02 07:08:04;;;;;;;41.60;17.00;;;;;;;4.57;66.97;99391.38;3083229;28;20073;-73
2021/12/02 07:09:36;;;;;;;48.95;18.73;;;;;;;4.62;66.56;99388.69;3083527;28;20086;-72
2021/12/02 07:11:10;;;;;;;45.55;18.27;;;;;;;4.70;66.39;99385.00;3084161;28;20054;-72
2021/12/02 07:12:44;;;;;;;48.20;17.77;;;;;;;4.79;66.03;99383.88;3086693;28;20140;-72
2021/12/02 07:14:17;;;;;;;52.92;17.65;;;;;;;4.83;65.68;99385.50;3085575;28;20144;-70
2021/12/02 07:15:52;;;;;;;43.08;16.30;;;;;;;4.89;65.47;99387.06;3085365;28;20057;-72
2021/12/02 07:17:23;;;;;;;39.65;15.00;;;;;;;4.92;65.18;99389.56;3085524;28;20050;-72
2021/12/02 07:18:57;;;;;;;40.35;14.10;;;;;;;4.97;65.17;99391.13;3085217;28;20125;-72
2021/12/02 07:20:33;;;;;;;41.45;15.27;;;;;;;5.05;64.98;99396.03;3088632;28;20393;-72
2021/12/02 07:22:05;;;;;;;39.88;15.23;;;;;;;5.08;64.50;99388.22;3088011;28;20061;-72